createdAt,value
2023-05-15T00:00:50.619Z,25.00
2023-05-15T00:01:50.632Z,7.79
2023-05-15T00:02:50.736Z,0.00
2023-05-15T00:03:50.722Z,0.00
2023-05-15T00:04:50.694Z,1.88
2023-05-15T00:05:50.638Z,10.06
2023-05-15T00:06:50.631Z,23.44
2023-05-15T00:07:50.626Z,25.00
2023-05-15T00:08:50.633Z,25.00
2023-05-15T00:09:50.633Z,25.00
2023-05-15T00:11:00.654Z,26.63
2023-05-15T00:11:50.658Z,26.74
2023-05-15T00:12:50.624Z,19.59
2023-05-15T00:13:50.626Z,8.39
2023-05-15T00:14:50.618Z,0.00
2023-05-15T00:15:50.653Z,0.00
2023-05-15T00:16:50.595Z,16.77
2023-05-15T00:17:50.633Z,25.00
2023-05-15T00:18:50.626Z,25.49
2023-05-15T00:19:50.580Z,25.34
2023-05-15T00:20:50.561Z,25.00
2023-05-15T00:21:50.554Z,25.56
2023-05-15T00:22:50.541Z,26.10
2023-05-15T00:23:50.547Z,25.87
2023-05-15T00:24:50.569Z,27.32
2023-05-15T00:25:50.547Z,27.20
2023-05-15T00:26:51.440Z,27.60
2023-05-15T00:27:50.553Z,26.26
2023-05-15T00:28:50.502Z,25.00
2023-05-15T00:29:50.500Z,24.58
2023-05-15T00:30:50.509Z,29.10
2023-05-15T00:31:50.597Z,25.68
2023-05-15T00:32:50.516Z,25.00
2023-05-15T00:33:50.481Z,25.00
2023-05-15T00:34:50.467Z,25.41
2023-05-15T00:35:50.460Z,29.79
2023-05-15T00:36:50.449Z,27.76
2023-05-15T00:37:50.443Z,28.66
2023-05-15T00:38:50.440Z,26.88
2023-05-15T00:39:50.437Z,27.48
2023-05-15T00:40:50.424Z,26.55
2023-05-15T00:41:50.420Z,25.00
2023-05-15T00:42:50.412Z,27.78
2023-05-15T00:43:50.430Z,27.03
2023-05-15T00:44:50.399Z,26.50
2023-05-15T00:45:50.392Z,26.28
2023-05-15T00:46:50.412Z,27.03
2023-05-15T00:47:50.432Z,29.16
2023-05-15T00:48:50.385Z,25.70
2023-05-15T00:49:50.372Z,26.09
2023-05-15T00:50:50.372Z,27.47
2023-05-15T00:51:50.359Z,28.79
2023-05-15T00:52:50.349Z,28.69
2023-05-15T00:53:50.344Z,29.55
2023-05-15T00:54:50.332Z,28.21
2023-05-15T00:55:50.332Z,27.71
2023-05-15T00:56:50.319Z,27.32
2023-05-15T00:57:50.310Z,27.34
2023-05-15T00:58:50.322Z,26.81
2023-05-15T00:59:50.323Z,26.10
2023-05-15T01:00:50.351Z,26.84
2023-05-15T01:01:50.279Z,27.35
2023-05-15T01:02:50.362Z,29.94
2023-05-15T01:03:50.271Z,28.04
2023-05-15T01:04:50.273Z,25.99
2023-05-15T01:05:50.271Z,30.92
2023-05-15T01:06:50.257Z,26.83
2023-05-15T01:07:50.243Z,30.60
2023-05-15T01:08:50.250Z,26.81
2023-05-15T01:09:50.247Z,31.01
2023-05-15T01:10:50.218Z,27.89
2023-05-15T01:11:50.223Z,29.06
2023-05-15T01:12:50.214Z,28.08
2023-05-15T01:13:50.209Z,29.59
2023-05-15T01:14:50.200Z,28.83
2023-05-15T01:15:50.236Z,26.30
2023-05-15T01:16:50.174Z,27.33
2023-05-15T01:17:50.202Z,30.19
2023-05-15T01:18:50.273Z,26.16
2023-05-15T01:19:50.324Z,26.66
2023-05-15T01:20:50.203Z,27.79
2023-05-15T01:21:50.227Z,26.94
2023-05-15T01:22:50.219Z,30.08
2023-05-15T01:23:50.228Z,29.47
2023-05-15T01:24:50.271Z,28.46
2023-05-15T01:25:50.248Z,27.52
2023-05-15T01:26:50.256Z,25.06
2023-05-15T01:27:50.260Z,26.40
2023-05-15T01:28:50.265Z,28.61
2023-05-15T01:29:50.277Z,25.77
2023-05-15T01:30:50.294Z,31.56
2023-05-15T01:31:50.399Z,30.40
2023-05-15T01:32:50.340Z,28.08
2023-05-15T01:33:50.323Z,30.47
2023-05-15T01:34:50.327Z,28.64
2023-05-15T01:35:50.335Z,31.13
2023-05-15T01:36:50.343Z,29.00
2023-05-15T01:37:50.347Z,31.04
2023-05-15T01:38:50.369Z,29.17
2023-05-15T01:39:50.378Z,29.67
2023-05-15T01:40:50.412Z,28.38
2023-05-15T01:41:50.402Z,26.25
2023-05-15T01:42:50.424Z,28.16
2023-05-15T01:43:50.458Z,26.62
2023-05-15T01:44:50.449Z,27.46
2023-05-15T01:45:50.469Z,26.63
2023-05-15T01:46:50.568Z,26.36
2023-05-15T01:47:50.563Z,27.42
2023-05-15T01:48:50.522Z,29.08
2023-05-15T01:49:50.534Z,30.41
2023-05-15T01:50:50.575Z,30.83
2023-05-15T01:51:50.573Z,28.44
2023-05-15T01:52:50.645Z,26.88
2023-05-15T01:53:50.610Z,30.06
2023-05-15T01:54:50.617Z,29.43
2023-05-15T01:55:50.653Z,28.48
2023-05-15T01:56:50.679Z,28.42
2023-05-15T01:57:50.663Z,28.27
2023-05-15T01:58:50.678Z,27.85
2023-05-15T01:59:50.693Z,27.28
2023-05-15T02:00:50.726Z,27.10
2023-05-15T02:01:50.835Z,29.90
2023-05-15T02:02:50.879Z,27.01
2023-05-15T02:03:50.970Z,29.12
2023-05-15T02:04:50.841Z,27.42
2023-05-15T02:05:50.800Z,27.82
2023-05-15T02:06:50.820Z,30.10
2023-05-15T02:07:50.857Z,30.15
2023-05-15T02:08:50.861Z,27.96
2023-05-15T02:09:50.887Z,27.70
2023-05-15T02:10:50.902Z,29.79
2023-05-15T02:11:50.903Z,29.59
2023-05-15T02:12:50.916Z,28.03
2023-05-15T02:13:50.952Z,27.67
2023-05-15T02:14:50.947Z,27.76
2023-05-15T02:15:50.994Z,29.08
2023-05-15T02:16:50.977Z,30.56
2023-05-15T02:17:51.045Z,26.23
2023-05-15T02:18:51.040Z,28.46
2023-05-15T02:19:51.053Z,26.32
2023-05-15T02:20:51.043Z,28.38
2023-05-15T02:21:51.063Z,27.44
2023-05-15T02:22:51.078Z,27.58
2023-05-15T02:23:51.107Z,28.64
2023-05-15T02:24:51.100Z,29.12
2023-05-15T02:25:51.131Z,29.51
2023-05-15T02:26:51.172Z,29.28
2023-05-15T02:27:51.148Z,28.72
2023-05-15T02:28:51.157Z,29.67
2023-05-15T02:29:51.182Z,28.62
2023-05-15T02:30:51.197Z,27.66
2023-05-15T02:31:51.284Z,30.12
2023-05-15T02:32:51.282Z,30.22
2023-05-15T02:33:51.279Z,27.83
2023-05-15T02:34:51.299Z,27.35
2023-05-15T02:35:51.378Z,28.85
2023-05-15T02:36:51.321Z,26.84
2023-05-15T02:37:51.336Z,28.04
2023-05-15T02:38:51.347Z,27.97
2023-05-15T02:39:51.368Z,29.86
2023-05-15T02:40:51.389Z,28.30
2023-05-15T02:41:51.397Z,27.07
2023-05-15T02:42:51.421Z,26.09
2023-05-15T02:43:51.432Z,29.84
2023-05-15T02:44:51.463Z,25.56
2023-05-15T02:45:51.490Z,28.68
2023-05-15T02:46:51.499Z,27.83
2023-05-15T02:47:51.573Z,27.70
2023-05-15T02:48:51.530Z,28.81
2023-05-15T02:49:51.542Z,31.19
2023-05-15T02:50:51.561Z,30.57
2023-05-15T02:51:51.607Z,28.90
2023-05-15T02:52:51.609Z,28.52
2023-05-15T02:53:51.617Z,27.03
2023-05-15T02:54:52.002Z,28.06
2023-05-15T02:55:52.062Z,29.05
2023-05-15T02:56:52.065Z,26.98
2023-05-15T02:57:52.054Z,26.92
2023-05-15T02:58:52.060Z,29.28
2023-05-15T02:59:52.063Z,30.12
2023-05-15T03:00:52.090Z,30.81
2023-05-15T03:01:52.058Z,27.73
2023-05-15T03:02:52.082Z,29.25
2023-05-15T03:03:52.118Z,27.90
2023-05-15T03:04:52.074Z,28.47
2023-05-15T03:05:52.064Z,30.67
2023-05-15T03:06:52.079Z,29.54
2023-05-15T03:07:52.108Z,29.35
2023-05-15T03:08:52.081Z,28.87
2023-05-15T03:09:52.068Z,28.02
2023-05-15T03:10:52.443Z,29.90
2023-05-15T03:11:52.077Z,29.54
2023-05-15T03:12:52.071Z,27.68
2023-05-15T03:13:52.074Z,31.05
2023-05-15T03:14:52.062Z,29.78
2023-05-15T03:15:52.078Z,30.20
2023-05-15T03:16:52.165Z,28.91
2023-05-15T03:17:52.157Z,29.41
2023-05-15T03:18:52.131Z,30.78
2023-05-15T03:19:52.084Z,29.80
2023-05-15T03:20:52.093Z,29.34
2023-05-15T03:21:52.124Z,30.51
2023-05-15T03:22:52.139Z,31.43
2023-05-15T03:23:52.187Z,30.79
2023-05-15T03:24:52.183Z,31.31
2023-05-15T03:25:52.209Z,31.51
2023-05-15T03:26:52.215Z,28.26
2023-05-15T03:27:52.232Z,28.33
2023-05-15T03:28:52.255Z,29.76
2023-05-15T03:29:52.268Z,32.15
2023-05-15T03:30:52.316Z,31.39
2023-05-15T03:31:52.396Z,30.74
2023-05-15T03:32:52.418Z,30.68
2023-05-15T03:33:52.366Z,31.96
2023-05-15T03:34:52.389Z,30.22
2023-05-15T03:35:52.424Z,30.23
2023-05-15T03:36:52.497Z,32.09
2023-05-15T03:37:52.472Z,30.46
2023-05-15T03:38:52.483Z,30.21
2023-05-15T03:39:52.521Z,28.06
2023-05-15T03:40:52.513Z,30.04
2023-05-15T03:41:52.544Z,30.43
2023-05-15T03:42:52.561Z,30.68
2023-05-15T03:43:52.594Z,29.98
2023-05-15T03:44:52.617Z,31.23
2023-05-15T03:45:52.646Z,32.80
2023-05-15T03:46:52.830Z,31.99
2023-05-15T03:47:53.072Z,31.31
2023-05-15T03:48:53.091Z,32.35
2023-05-15T03:49:53.087Z,31.24
2023-05-15T03:50:53.089Z,31.51
2023-05-15T03:51:53.089Z,30.41
2023-05-15T03:52:53.103Z,33.71
2023-05-15T03:53:53.086Z,29.62
2023-05-15T03:54:53.089Z,30.12
2023-05-15T03:55:53.114Z,30.45
2023-05-15T03:56:53.096Z,30.94
2023-05-15T03:57:53.088Z,29.22
2023-05-15T03:58:53.085Z,29.54
2023-05-15T03:59:53.090Z,30.35
2023-05-15T04:00:53.085Z,30.82
2023-05-15T04:02:04.257Z,31.68
2023-05-15T04:02:53.149Z,32.03
2023-05-15T04:03:53.110Z,32.86
2023-05-15T04:04:53.170Z,33.15
2023-05-15T04:05:53.086Z,33.47
2023-05-15T04:06:53.110Z,31.42
2023-05-15T04:07:53.093Z,32.30
2023-05-15T04:08:53.092Z,30.55
2023-05-15T04:09:53.090Z,31.53
2023-05-15T04:10:53.103Z,31.12
2023-05-15T04:11:53.128Z,31.21
2023-05-15T04:12:53.101Z,33.16
2023-05-15T04:13:53.103Z,29.68
2023-05-15T04:14:53.102Z,33.72
2023-05-15T04:15:53.277Z,30.66
2023-05-15T04:16:53.137Z,30.56
2023-05-15T04:17:53.186Z,31.97
2023-05-15T04:18:53.126Z,30.99
2023-05-15T04:19:53.131Z,30.52
2023-05-15T04:20:53.106Z,30.30
2023-05-15T04:21:53.154Z,32.28
2023-05-15T04:22:53.105Z,28.49
2023-05-15T04:23:53.112Z,30.50
2023-05-15T04:24:53.101Z,36.49
2023-05-15T04:25:53.142Z,33.71
2023-05-15T04:26:53.158Z,33.31
2023-05-15T04:27:53.152Z,32.14
2023-05-15T04:29:03.507Z,32.93
2023-05-15T04:29:53.130Z,33.24
2023-05-15T04:30:53.104Z,33.63
2023-05-15T04:31:53.147Z,33.28
2023-05-15T04:32:53.156Z,34.41
2023-05-15T04:33:53.125Z,35.22
2023-05-15T04:34:53.117Z,31.76
2023-05-15T04:35:53.111Z,32.59
2023-05-15T04:36:53.110Z,35.49
2023-05-15T04:37:53.110Z,33.88
2023-05-15T04:38:53.110Z,34.40
2023-05-15T04:39:53.104Z,34.06
2023-05-15T04:40:53.108Z,31.71
2023-05-15T04:41:53.065Z,34.11
2023-05-15T04:42:53.095Z,30.95
2023-05-15T04:43:52.789Z,31.94
2023-05-15T04:44:52.698Z,31.51
2023-05-15T04:45:52.736Z,34.82
2023-05-15T04:46:52.691Z,33.74
2023-05-15T04:47:52.744Z,30.50
2023-05-15T04:48:52.693Z,31.05
2023-05-15T04:49:52.674Z,33.41
2023-05-15T04:50:52.675Z,29.69
2023-05-15T04:51:52.654Z,31.24
2023-05-15T04:52:52.652Z,33.31
2023-05-15T04:53:52.667Z,30.63
2023-05-15T04:54:52.676Z,32.97
2023-05-15T04:55:52.638Z,33.95
2023-05-15T04:56:52.646Z,30.12
2023-05-15T04:57:52.615Z,32.81
2023-05-15T04:58:52.605Z,31.96
2023-05-15T04:59:52.682Z,35.42
2023-05-15T05:00:52.587Z,34.70
2023-05-15T05:01:52.585Z,35.11
2023-05-15T05:02:52.641Z,33.40
2023-05-15T05:03:52.669Z,35.30
2023-05-15T05:04:52.607Z,29.26
2023-05-15T05:05:52.624Z,31.94
2023-05-15T05:06:53.147Z,36.67
2023-05-15T05:07:52.680Z,31.40
2023-05-15T05:08:52.702Z,33.82
2023-05-15T05:09:53.098Z,33.80
2023-05-15T05:10:53.147Z,32.68
2023-05-15T05:11:52.794Z,34.51
2023-05-15T05:12:52.813Z,35.02
2023-05-15T05:13:52.857Z,32.59
2023-05-15T05:14:52.877Z,33.35
2023-05-15T05:15:52.985Z,33.50
2023-05-15T05:16:52.952Z,33.81
2023-05-15T05:17:52.973Z,34.88
2023-05-15T05:18:53.071Z,33.94
2023-05-15T05:19:53.019Z,35.09
2023-05-15T05:20:53.085Z,30.31
2023-05-15T05:21:53.566Z,32.89
2023-05-15T05:22:53.101Z,38.23
2023-05-15T05:23:53.141Z,43.67
2023-05-15T05:24:53.173Z,46.58
2023-05-15T05:25:53.168Z,54.23
2023-05-15T05:26:53.567Z,41.67
2023-05-15T05:27:53.226Z,22.21
2023-05-15T05:28:53.555Z,25.37
2023-05-15T05:29:53.312Z,29.10
2023-05-15T05:30:53.389Z,26.15
2023-05-15T05:31:53.638Z,25.00
2023-05-15T05:32:53.436Z,25.00
2023-05-15T05:33:53.637Z,28.75
2023-05-15T05:34:53.432Z,25.64
2023-05-15T05:35:53.435Z,25.00
2023-05-15T05:36:53.570Z,26.93
2023-05-15T05:37:53.477Z,27.37
2023-05-15T05:38:53.568Z,29.50
2023-05-15T05:39:53.543Z,26.62
2023-05-15T05:40:53.576Z,26.77
2023-05-15T05:41:54.068Z,32.67
2023-05-15T05:42:53.659Z,30.86
2023-05-15T05:43:53.705Z,29.32
2023-05-15T05:44:53.745Z,32.67
2023-05-15T05:45:53.790Z,34.84
2023-05-15T05:46:54.244Z,53.99
2023-05-15T05:47:53.963Z,69.95
2023-05-15T05:48:53.953Z,66.43
2023-05-15T05:49:55.025Z,66.03
2023-05-15T05:50:54.105Z,70.46
2023-05-15T05:51:54.640Z,68.80
2023-05-15T05:52:54.210Z,66.59
2023-05-15T05:53:55.291Z,97.23
2023-05-15T05:54:54.331Z,94.04
2023-05-15T05:55:54.405Z,93.59
2023-05-15T05:56:54.568Z,91.74
2023-05-15T05:57:54.565Z,106.44
2023-05-15T06:00:01.896Z,78.18
2023-05-15T06:00:54.568Z,65.10
2023-05-15T06:02:26.387Z,80.53
2023-05-15T06:02:54.696Z,86.06
2023-05-15T06:03:54.676Z,92.89
2023-05-15T06:05:10.121Z,108.13
2023-05-15T06:05:57.665Z,87.43
2023-05-15T06:07:54.458Z,88.44
2023-05-15T06:09:10.040Z,102.29
2023-05-15T06:10:01.871Z,88.92
2023-05-15T06:11:01.814Z,89.33
2023-05-15T06:11:57.939Z,89.62
2023-05-15T06:12:54.452Z,90.22
2023-05-15T06:14:26.192Z,108.10
2023-05-15T06:14:54.401Z,89.95
2023-05-15T06:15:54.382Z,109.42
2023-05-15T06:16:54.465Z,143.09
2023-05-15T06:17:54.401Z,192.42
2023-05-15T06:18:55.438Z,263.24
2023-05-15T06:19:54.384Z,248.54
2023-05-15T06:20:54.353Z,247.74
2023-05-15T06:21:54.572Z,248.05
2023-05-15T06:23:02.085Z,249.03
2023-05-15T06:23:54.324Z,249.32
2023-05-15T06:24:54.318Z,250.22
2023-05-15T06:25:54.341Z,253.18
2023-05-15T06:26:54.602Z,259.86
2023-05-15T06:28:09.923Z,275.37
2023-05-15T06:28:54.332Z,250.28
2023-05-15T06:29:54.285Z,254.96
2023-05-15T06:30:54.309Z,262.91
2023-05-15T06:31:54.575Z,275.14
2023-05-15T06:32:54.637Z,294.79
2023-05-15T06:33:54.260Z,274.64
2023-05-15T06:34:54.240Z,255.04
2023-05-15T06:35:54.448Z,249.58
2023-05-15T06:36:54.574Z,250.00
2023-05-15T06:37:55.378Z,249.68
2023-05-15T06:38:54.210Z,249.90
2023-05-15T06:39:54.218Z,251.76
2023-05-15T06:40:54.611Z,254.87
2023-05-15T06:42:10.171Z,260.85
2023-05-15T06:43:01.588Z,250.60
2023-05-15T06:44:01.981Z,250.79
2023-05-15T06:44:54.214Z,250.99
2023-05-15T06:45:54.210Z,255.14
2023-05-15T06:46:54.613Z,261.99
2023-05-15T06:47:54.210Z,272.29
2023-05-15T06:48:54.228Z,285.60
2023-05-15T06:49:55.127Z,270.83
2023-05-15T06:50:54.155Z,251.76
2023-05-15T06:51:54.614Z,250.00
2023-05-15T06:52:54.108Z,248.33
2023-05-15T06:53:54.599Z,248.11
2023-05-15T06:54:54.819Z,248.21
2023-05-15T06:55:54.105Z,249.50
2023-05-15T06:56:54.595Z,250.00
2023-05-15T06:57:54.212Z,250.00
2023-05-15T06:59:54.074Z,248.29
2023-05-15T07:01:01.524Z,248.68
2023-05-15T07:01:57.349Z,248.49
2023-05-15T07:02:55.261Z,248.60
2023-05-15T07:03:54.205Z,249.94
2023-05-15T07:04:54.247Z,251.02
2023-05-15T07:05:54.086Z,254.72
2023-05-15T07:07:01.466Z,257.07
2023-05-15T07:07:54.066Z,248.61
2023-05-15T07:08:54.134Z,250.40
2023-05-15T07:09:54.196Z,252.99
2023-05-15T07:10:54.104Z,258.78
2023-05-15T07:11:54.018Z,265.42
2023-05-15T07:12:54.016Z,250.84
2023-05-15T07:13:53.989Z,249.09
2023-05-15T07:14:53.961Z,250.37
2023-05-15T07:15:54.093Z,250.00
2023-05-15T07:16:53.948Z,248.37
2023-05-15T07:17:55.058Z,249.24
2023-05-15T07:18:54.040Z,248.39
2023-05-15T07:19:53.951Z,248.41
2023-05-15T07:20:54.621Z,249.34
2023-05-15T07:21:54.204Z,250.00
2023-05-15T07:22:56.837Z,250.00
2023-05-15T07:23:53.889Z,250.11
2023-05-15T07:24:53.878Z,250.58
2023-05-15T07:25:53.882Z,250.85
2023-05-15T07:26:58.868Z,252.74
2023-05-15T07:27:54.896Z,250.35
2023-05-15T07:28:53.854Z,250.37
2023-05-15T07:29:54.264Z,250.97
2023-05-15T07:30:54.359Z,253.21
2023-05-15T07:31:54.393Z,255.05
2023-05-15T07:32:53.869Z,253.47
2023-05-15T07:33:57.060Z,249.97
2023-05-15T07:34:53.820Z,250.04
2023-05-15T07:36:53.784Z,250.03
2023-05-15T07:37:53.825Z,250.11
2023-05-15T07:38:57.078Z,248.79
2023-05-15T07:39:53.804Z,250.11
2023-05-15T07:40:53.748Z,249.98
2023-05-15T07:41:54.230Z,250.84
2023-05-15T07:42:55.218Z,252.75
2023-05-15T07:43:53.798Z,257.13
2023-05-15T07:44:53.782Z,248.84
2023-05-15T07:45:53.901Z,247.51
2023-05-15T07:46:53.828Z,249.48
2023-05-15T07:47:54.180Z,248.70
2023-05-15T07:48:53.819Z,248.57
2023-05-15T07:49:54.984Z,249.11
2023-05-15T07:50:53.908Z,249.35
2023-05-15T07:51:54.218Z,249.50
2023-05-15T07:52:57.812Z,249.72
2023-05-15T07:54:26.295Z,249.85
2023-05-15T07:54:53.926Z,250.05
2023-05-15T07:55:57.120Z,250.87
2023-05-15T07:56:57.300Z,250.13
2023-05-15T07:57:57.308Z,250.14
2023-05-15T07:59:09.570Z,250.22
2023-05-15T07:59:57.152Z,250.25
2023-05-15T08:00:53.888Z,250.30
2023-05-15T08:01:57.507Z,251.63
2023-05-15T08:02:54.178Z,250.23
2023-05-15T08:03:53.923Z,251.18
2023-05-15T08:04:53.853Z,251.77
2023-05-15T08:05:53.840Z,251.14
2023-05-15T08:06:53.832Z,247.99
2023-05-15T08:07:54.120Z,239.58
2023-05-15T08:08:53.817Z,222.24
2023-05-15T08:09:53.944Z,220.88
2023-05-15T08:10:53.801Z,221.18
2023-05-15T08:11:53.789Z,216.89
2023-05-15T08:12:54.124Z,210.18
2023-05-15T08:13:53.793Z,206.17
2023-05-15T08:14:53.755Z,195.75
2023-05-15T08:15:53.795Z,187.14
2023-05-15T08:16:53.745Z,176.87
2023-05-15T08:17:54.150Z,174.58
2023-05-15T08:18:53.797Z,173.13
2023-05-15T08:19:53.728Z,170.01
2023-05-15T08:20:53.712Z,164.72
2023-05-15T08:21:53.700Z,159.62
2023-05-15T08:22:53.695Z,154.64
2023-05-15T08:23:53.940Z,154.39
2023-05-15T08:24:53.686Z,148.10
2023-05-15T08:25:53.692Z,148.34
2023-05-15T08:26:53.663Z,146.45
2023-05-15T08:27:54.112Z,145.82
2023-05-15T08:28:54.647Z,146.27
2023-05-15T08:29:57.447Z,142.21
2023-05-15T08:30:53.701Z,142.29
2023-05-15T08:31:53.652Z,142.04
2023-05-15T08:32:54.203Z,137.25
2023-05-15T08:33:53.636Z,132.43
2023-05-15T08:34:54.128Z,133.31
2023-05-15T08:35:53.664Z,129.86
2023-05-15T08:36:53.620Z,127.04
2023-05-15T08:37:53.614Z,126.30
2023-05-15T08:38:53.603Z,126.76
2023-05-15T08:39:53.617Z,123.04
2023-05-15T08:40:53.582Z,123.60
2023-05-15T08:41:53.622Z,123.81
2023-05-15T08:42:53.570Z,116.83
2023-05-15T08:43:56.759Z,114.10
2023-05-15T08:44:53.618Z,114.17
2023-05-15T08:45:53.553Z,114.30
2023-05-15T08:46:53.736Z,113.53
2023-05-15T08:48:01.096Z,116.74
2023-05-15T08:48:56.778Z,114.33
2023-05-15T08:49:56.796Z,114.35
2023-05-15T08:50:53.502Z,114.41
2023-05-15T08:51:53.487Z,115.11
2023-05-15T08:52:53.622Z,116.82
2023-05-15T08:53:53.493Z,118.37
2023-05-15T08:54:53.484Z,125.14
2023-05-15T08:55:53.486Z,128.08
2023-05-15T08:56:53.465Z,129.54
2023-05-15T08:58:01.061Z,132.68
2023-05-15T08:58:56.647Z,132.91
2023-05-15T08:59:53.456Z,133.11
2023-05-15T09:00:53.425Z,133.98
2023-05-15T09:01:53.446Z,135.51
2023-05-15T09:02:53.700Z,138.44
2023-05-15T09:03:53.434Z,142.15
2023-05-15T09:04:53.652Z,143.21
2023-05-15T09:05:53.407Z,145.77
2023-05-15T09:06:53.406Z,148.10
2023-05-15T09:07:53.359Z,149.14
2023-05-15T09:08:53.372Z,149.31
2023-05-15T09:09:53.639Z,151.39
2023-05-15T09:10:53.340Z,151.74
2023-05-15T09:11:53.345Z,153.74
2023-05-15T09:12:53.367Z,156.56
2023-05-15T09:13:53.366Z,157.85
2023-05-15T09:14:53.636Z,159.78
2023-05-15T09:16:53.455Z,161.47
2023-05-15T09:17:53.381Z,162.03
2023-05-15T09:18:53.362Z,162.53
2023-05-15T09:19:53.298Z,163.99
2023-05-15T09:20:55.473Z,165.68
2023-05-15T09:21:53.256Z,161.60
2023-05-15T09:22:53.656Z,162.30
2023-05-15T09:23:53.347Z,163.87
2023-05-15T09:24:53.634Z,165.93
2023-05-15T09:25:53.990Z,170.23
2023-05-15T09:26:53.246Z,172.28
2023-05-15T09:27:53.211Z,170.93
2023-05-15T09:28:53.205Z,174.01
2023-05-15T09:29:53.236Z,175.31
2023-05-15T09:30:53.640Z,175.61
2023-05-15T09:31:53.238Z,177.75
2023-05-15T09:32:53.269Z,179.94
2023-05-15T09:34:53.169Z,183.96
2023-05-15T09:36:53.661Z,184.09
2023-05-15T09:37:53.648Z,184.16
2023-05-15T09:38:53.140Z,185.51
2023-05-15T09:39:53.400Z,188.24
2023-05-15T09:40:53.134Z,192.41
2023-05-15T09:41:54.136Z,199.04
2023-05-15T09:42:53.502Z,200.18
2023-05-15T09:43:53.453Z,201.19
2023-05-15T09:44:53.097Z,198.87
2023-05-15T09:45:53.226Z,197.55
2023-05-15T09:46:53.216Z,196.27
2023-05-15T09:47:53.260Z,195.30
2023-05-15T09:48:53.142Z,193.85
2023-05-15T09:49:53.080Z,189.01
2023-05-15T09:50:53.124Z,185.36
2023-05-15T09:51:53.140Z,183.99
2023-05-15T09:52:53.307Z,180.21
2023-05-15T09:53:53.235Z,174.55
2023-05-15T09:54:53.256Z,171.53
2023-05-15T09:55:53.656Z,170.66
2023-05-15T09:56:53.340Z,167.34
2023-05-15T09:57:54.644Z,162.98
2023-05-15T09:58:53.383Z,158.31
2023-05-15T09:59:53.428Z,152.86
2023-05-15T10:00:53.464Z,151.84
2023-05-15T10:01:53.579Z,149.82
2023-05-15T10:02:53.568Z,148.45
2023-05-15T10:03:53.589Z,144.97
2023-05-15T10:04:53.661Z,141.35
2023-05-15T10:05:53.701Z,137.91
2023-05-15T10:06:53.721Z,135.65
2023-05-15T10:07:54.403Z,134.55
2023-05-15T10:08:53.878Z,132.96
2023-05-15T10:09:53.868Z,130.72
2023-05-15T10:10:53.933Z,129.07
2023-05-15T10:11:54.377Z,128.36
2023-05-15T10:12:54.716Z,126.17
2023-05-15T10:13:54.377Z,122.31
2023-05-15T10:14:54.372Z,121.95
2023-05-15T10:15:54.151Z,122.20
2023-05-15T10:16:54.185Z,119.83
2023-05-15T10:17:54.746Z,120.18
2023-05-15T10:18:54.387Z,118.30
2023-05-15T10:19:58.353Z,115.34
2023-05-15T10:20:54.354Z,115.51
2023-05-15T10:21:54.402Z,115.49
2023-05-15T10:22:55.669Z,113.88
2023-05-15T10:23:54.663Z,113.37
2023-05-15T10:24:54.665Z,104.66
2023-05-15T10:25:57.808Z,104.99
2023-05-15T10:26:55.598Z,105.05
2023-05-15T10:27:54.595Z,105.52
2023-05-15T10:28:54.566Z,105.12
2023-05-15T10:29:54.668Z,98.69
2023-05-15T10:30:54.601Z,99.26
2023-05-15T10:31:54.643Z,86.09
2023-05-15T10:32:55.174Z,78.70
2023-05-15T10:33:54.596Z,63.99
2023-05-15T10:34:54.532Z,43.54
2023-05-15T10:35:54.510Z,28.10
2023-05-15T10:36:54.504Z,34.97
2023-05-15T10:37:54.547Z,44.89
2023-05-15T10:38:54.612Z,48.43
2023-05-15T10:39:54.627Z,49.12
2023-05-15T10:41:02.725Z,51.28
2023-05-15T10:41:55.169Z,51.45
2023-05-15T10:42:54.626Z,51.59
2023-05-15T10:43:54.607Z,52.68
2023-05-15T10:44:54.604Z,54.68
2023-05-15T10:45:54.597Z,57.29
2023-05-15T10:46:54.641Z,57.33
2023-05-15T10:47:54.623Z,52.72
2023-05-15T10:48:54.730Z,55.38
2023-05-15T10:49:54.595Z,59.95
2023-05-15T10:50:54.560Z,59.44
2023-05-15T10:51:54.550Z,63.48
2023-05-15T10:52:54.556Z,60.16
2023-05-15T10:53:54.676Z,60.27
2023-05-15T10:54:54.521Z,64.51
2023-05-15T10:55:54.550Z,65.19
2023-05-15T10:56:54.672Z,75.05
2023-05-15T10:57:54.496Z,79.84
2023-05-15T10:58:54.549Z,89.88
2023-05-15T10:59:54.480Z,104.89
2023-05-15T11:00:54.560Z,112.34
2023-05-15T11:01:54.666Z,110.60
2023-05-15T11:02:54.499Z,111.06
2023-05-15T11:03:55.411Z,106.78
2023-05-15T11:04:54.438Z,111.84
2023-05-15T11:05:54.463Z,110.48
2023-05-15T11:06:54.421Z,102.92
2023-05-15T11:07:54.433Z,98.02
2023-05-15T11:08:55.186Z,95.88
2023-05-15T11:09:54.421Z,96.76
2023-05-15T11:10:54.407Z,99.39
2023-05-15T11:11:54.408Z,100.20
2023-05-15T11:12:54.376Z,97.94
2023-05-15T11:13:54.699Z,99.79
2023-05-15T11:14:54.370Z,101.25
2023-05-15T11:15:54.356Z,102.96
2023-05-15T11:16:54.408Z,105.15
2023-05-15T11:17:54.380Z,105.37
2023-05-15T11:18:54.727Z,107.86
2023-05-15T11:19:54.335Z,110.15
2023-05-15T11:20:54.678Z,111.54
2023-05-15T11:21:55.193Z,111.27
2023-05-15T11:22:54.346Z,111.25
2023-05-15T11:23:54.363Z,114.32
2023-05-15T11:24:54.814Z,121.95
2023-05-15T11:25:54.685Z,122.77
2023-05-15T11:26:54.524Z,126.58
2023-05-15T11:27:54.585Z,130.78
2023-05-15T11:28:54.622Z,132.81
2023-05-15T11:29:54.674Z,136.91
2023-05-15T11:30:54.757Z,140.78
2023-05-15T11:31:54.735Z,143.99
2023-05-15T11:32:54.789Z,145.86
2023-05-15T11:33:54.776Z,148.70
2023-05-15T11:34:55.587Z,152.46
2023-05-15T11:35:54.816Z,157.29
2023-05-15T11:36:55.199Z,159.52
2023-05-15T11:37:54.883Z,161.22
2023-05-15T11:38:54.872Z,164.33
2023-05-15T11:39:55.194Z,166.84
2023-05-15T11:40:54.917Z,169.46
2023-05-15T11:41:55.183Z,171.85
2023-05-15T11:42:54.909Z,175.46
2023-05-15T11:43:55.300Z,176.53
2023-05-15T11:44:54.916Z,178.79
2023-05-15T11:45:54.906Z,180.56
2023-05-15T11:46:54.962Z,183.30
2023-05-15T11:47:55.715Z,185.22
2023-05-15T11:48:55.362Z,188.59
2023-05-15T11:49:54.892Z,191.71
2023-05-15T11:50:54.886Z,193.14
2023-05-15T11:51:54.917Z,195.09
2023-05-15T11:52:54.931Z,197.61
2023-05-15T11:53:55.377Z,199.16
2023-05-15T11:54:55.349Z,200.18
2023-05-15T11:55:55.000Z,203.46
2023-05-15T11:56:55.038Z,204.10
2023-05-15T11:57:55.050Z,205.74
2023-05-15T11:58:55.192Z,207.58
2023-05-15T11:59:55.093Z,209.02
2023-05-15T12:00:55.096Z,211.89
2023-05-15T12:01:55.101Z,211.87
2023-05-15T12:02:55.170Z,215.43
2023-05-15T12:03:55.514Z,216.37
2023-05-15T12:04:55.166Z,216.05
2023-05-15T12:05:58.926Z,217.14
2023-05-15T12:06:55.394Z,217.38
2023-05-15T12:07:55.437Z,217.93
2023-05-15T12:08:55.728Z,218.92
2023-05-15T12:09:55.587Z,220.68
2023-05-15T12:10:55.585Z,224.03
2023-05-15T12:11:55.653Z,226.04
2023-05-15T12:12:58.902Z,226.88
2023-05-15T12:13:56.194Z,226.95
2023-05-15T12:14:55.701Z,227.30
2023-05-15T12:15:55.706Z,227.95
2023-05-15T12:16:55.831Z,230.38
2023-05-15T12:17:55.720Z,232.53
2023-05-15T12:18:55.735Z,233.95
2023-05-15T12:19:55.661Z,236.51
2023-05-15T12:20:55.662Z,234.79
2023-05-15T12:21:55.647Z,235.37
2023-05-15T12:22:55.647Z,237.19
2023-05-15T12:24:03.917Z,235.96
2023-05-15T12:24:55.706Z,236.21
2023-05-15T12:25:58.849Z,237.16
2023-05-15T12:26:57.510Z,236.30
2023-05-15T12:27:55.611Z,236.28
2023-05-15T12:28:55.750Z,237.35
2023-05-15T12:29:55.588Z,238.37
2023-05-15T12:30:55.603Z,240.95
2023-05-15T12:31:55.613Z,242.89
2023-05-15T12:32:55.640Z,245.91
2023-05-15T12:33:55.617Z,244.48
2023-05-15T12:34:55.559Z,245.17
2023-05-15T12:35:58.251Z,246.43
2023-05-15T12:36:55.545Z,246.62
2023-05-15T12:37:55.537Z,247.19
2023-05-15T12:38:55.710Z,247.68
2023-05-15T12:39:55.541Z,248.06
2023-05-15T12:40:55.515Z,250.14
2023-05-15T12:41:55.534Z,248.59
2023-05-15T12:42:55.538Z,249.78
2023-05-15T12:43:55.492Z,249.69
2023-05-15T12:44:55.503Z,249.07
2023-05-15T12:45:55.561Z,249.68
2023-05-15T12:46:55.466Z,249.82
2023-05-15T12:47:55.524Z,249.22
2023-05-15T12:48:55.470Z,248.96